Time;durP1;ratioP1;P1;durP2;ratioP2;P2;SDS_P1;SDS_P2;PMS_P1;PMS_P2;Temp;Humidity;BMP_temperature;BMP_pressure;BME280_temperature;BME280_humidity;BME280_pressure;Samples;Min_cycle;Max_cycle;Signal;HPM_P1;HPM_P2
2021/10/30 00:02:20;;;;;;;1.98;1.77;;;22.30;55.50;;;;;;5069794;28;20250;-50
2021/10/30 00:04:52;;;;;;;2.20;2.00;;;22.30;55.50;;;;;;5068847;28;20190;-52
2021/10/30 00:07:22;;;;;;;3.55;2.17;;;22.30;55.50;;;;;;5067163;28;20237;-48
2021/10/30 00:09:53;;;;;;;2.22;2.00;;;22.30;55.50;;;;;;5069408;28;20837;-51
2021/10/30 00:12:23;;;;;;;2.30;2.10;;;22.40;55.50;;;;;;5069189;28;20252;-57
2021/10/30 00:14:55;;;;;;;2.70;1.80;;;22.40;55.50;;;;;;5068733;28;20230;-44
2021/10/30 00:17:26;;;;;;;1.83;1.73;;;22.40;55.60;;;;;;5068222;28;20230;-57
2021/10/30 00:19:56;;;;;;;2.63;2.05;;;22.40;55.60;;;;;;5069690;28;20235;-53
2021/10/30 00:22:29;;;;;;;2.50;2.15;;;22.40;55.50;;;;;;5067767;28;20689;-52
2021/10/30 00:24:59;;;;;;;2.45;2.25;;;22.40;55.50;;;;;;5068053;28;20199;-50
2021/10/30 00:27:30;;;;;;;2.08;1.98;;;22.40;55.50;;;;;;5068044;28;20249;-47
2021/10/30 00:30:02;;;;;;;2.13;1.95;;;22.50;55.50;;;;;;5068505;28;20229;-49
2021/10/30 00:32:33;;;;;;;2.75;2.25;;;22.50;55.40;;;;;;5069253;28;20250;-61
2021/10/30 00:35:03;;;;;;;2.80;2.13;;;22.50;55.40;;;;;;5069436;28;20286;-52
2021/10/30 00:37:34;;;;;;;3.92;2.55;;;22.50;55.40;;;;;;5068397;28;20238;-55
2021/10/30 00:40:04;;;;;;;3.03;2.17;;;22.50;55.40;;;;;;5068001;28;20290;-60
2021/10/30 00:42:35;;;;;;;2.53;2.33;;;22.50;55.40;;;;;;5068146;28;20254;-50
2021/10/30 00:45:08;;;;;;;3.45;2.47;;;22.50;55.30;;;;;;5069070;28;20237;-54
2021/10/30 00:47:39;;;;;;;2.20;2.00;;;22.60;55.40;;;;;;5069213;28;20277;-57
2021/10/30 00:50:10;;;;;;;2.45;2.17;;;22.60;55.30;;;;;;5067416;28;20234;-55
2021/10/30 00:52:42;;;;;;;2.13;1.92;;;22.60;55.30;;;;;;5051296;28;20255;-53
2021/10/30 00:55:13;;;;;;;2.60;2.13;;;22.60;55.30;;;;;;5069543;28;20708;-49
2021/10/30 00:57:45;;;;;;;2.53;2.25;;;22.60;55.30;;;;;;5068916;28;20636;-55
2021/10/30 01:00:17;;;;;;;2.45;2.25;;;22.60;55.30;;;;;;5067893;28;20222;-62
2021/10/30 01:02:48;;;;;;;3.33;2.35;;;22.60;55.30;;;;;;5067536;28;20254;-56
2021/10/30 01:05:18;;;;;;;2.28;2.08;;;22.70;55.30;;;;;;5068705;28;20277;-53
2021/10/30 01:07:49;;;;;;;2.38;2.17;;;22.60;55.30;;;;;;5066998;28;20223;-54
2021/10/30 01:10:22;;;;;;;2.25;2.08;;;22.70;55.30;;;;;;5068681;28;20233;-48
2021/10/30 01:12:53;;;;;;;2.50;2.30;;;22.70;55.40;;;;;;5067623;28;20245;-52
2021/10/30 01:15:31;;;;;;;2.55;2.35;;;22.70;55.30;;;;;;5050499;28;20282;-44
2021/10/30 01:18:03;;;;;;;3.13;2.58;;;22.80;55.40;;;;;;5069431;28;20207;-47
2021/10/30 01:20:35;;;;;;;3.72;2.45;;;22.80;55.30;;;;;;5068927;28;20242;-50
2021/10/30 01:23:06;;;;;;;3.00;2.03;;;22.80;55.30;;;;;;5068236;28;20250;-51
2021/10/30 01:25:37;;;;;;;4.10;2.38;;;22.80;55.30;;;;;;5066665;28;20250;-54
2021/10/30 01:28:07;;;;;;;2.80;2.10;;;22.80;55.30;;;;;;5067888;28;20715;-57
2021/10/30 01:30:38;;;;;;;3.30;2.28;;;22.80;55.20;;;;;;5067866;28;20198;-50
2021/10/30 01:33:10;;;;;;;3.42;2.15;;;22.80;55.30;;;;;;5066484;28;20307;-50
2021/10/30 01:35:43;;;;;;;2.38;2.13;;;22.80;55.30;;;;;;5054059;28;20198;-44
2021/10/30 01:38:14;;;;;;;3.08;2.53;;;22.80;55.30;;;;;;5068030;28;20850;-46
2021/10/30 01:40:46;;;;;;;2.40;2.20;;;22.80;55.20;;;;;;5067359;28;20286;-54
2021/10/30 01:43:18;;;;;;;2.63;2.17;;;22.80;55.20;;;;;;5067849;28;20627;-50
2021/10/30 01:45:49;;;;;;;3.00;2.20;;;22.90;55.30;;;;;;5064569;28;20309;-59
2021/10/30 01:48:20;;;;;;;3.05;2.25;;;22.90;55.20;;;;;;5066159;28;20774;-53
2021/10/30 01:50:52;;;;;;;4.20;2.30;;;22.90;55.20;;;;;;5068279;28;20253;-50
2021/10/30 01:53:23;;;;;;;3.22;2.40;;;22.90;55.30;;;;;;5067731;28;20222;-55
2021/10/30 01:55:54;;;;;;;2.83;2.15;;;22.90;55.30;;;;;;5066778;28;20233;-47
2021/10/30 01:58:24;;;;;;;2.40;2.17;;;23.00;55.30;;;;;;5056401;28;20892;-45
2021/10/30 02:00:56;;;;;;;5.13;2.35;;;23.00;55.30;;;;;;5067421;28;20233;-47
2021/10/30 02:03:29;;;;;;;2.78;2.20;;;23.00;55.20;;;;;;5066884;28;20211;-44
2021/10/30 02:06:02;;;;;;;3.30;2.53;;;23.00;55.20;;;;;;5068744;28;20215;-49
2021/10/30 02:08:33;;;;;;;2.70;2.33;;;23.00;55.80;;;;;;5068109;28;20237;-46
2021/10/30 02:11:05;;;;;;;2.90;2.30;;;23.00;55.10;;;;;;5067974;28;20242;-47
2021/10/30 02:13:36;;;;;;;2.40;2.20;;;23.00;55.10;;;;;;5066770;28;20198;-48
2021/10/30 02:16:07;;;;;;;3.97;2.33;;;23.00;55.10;;;;;;5068285;28;20286;-46
2021/10/30 02:18:37;;;;;;;2.90;2.28;;;23.00;55.10;;;;;;5067038;28;20278;-56
2021/10/30 02:21:10;;;;;;;2.78;2.58;;;23.10;55.10;;;;;;5067099;28;20642;-45
2021/10/30 02:23:40;;;;;;;4.03;2.22;;;23.10;55.10;;;;;;5065901;28;20249;-57
2021/10/30 02:26:11;;;;;;;2.50;2.30;;;23.10;55.10;;;;;;5067241;28;20352;-54
2021/10/30 02:28:41;;;;;;;2.30;2.10;;;23.10;55.00;;;;;;5068814;28;20223;-44
2021/10/30 02:31:12;;;;;;;2.55;2.35;;;23.10;55.00;;;;;;5070306;28;20245;-45
2021/10/30 02:33:42;;;;;;;2.85;2.63;;;23.10;55.00;;;;;;5063098;28;20234;-45
2021/10/30 02:36:15;;;;;;;2.75;2.10;;;23.10;55.10;;;;;;5065158;28;20237;-60
2021/10/30 02:38:45;;;;;;;2.35;2.15;;;23.20;55.10;;;;;;5066924;28;20226;-60
2021/10/30 02:41:15;;;;;;;3.65;2.40;;;23.20;55.10;;;;;;5069776;28;20238;-51
2021/10/30 02:43:46;;;;;;;3.35;2.33;;;23.20;55.10;;;;;;5071365;28;20274;-50
2021/10/30 02:46:16;;;;;;;3.35;2.55;;;23.20;55.00;;;;;;5070401;28;20757;-45
2021/10/30 02:48:47;;;;;;;3.35;2.38;;;23.30;55.00;;;;;;5070157;28;20265;-47
2021/10/30 02:51:19;;;;;;;2.40;1.85;;;23.30;55.10;;;;;;5070761;28;20234;-45
2021/10/30 02:53:50;;;;;;;2.30;2.10;;;23.30;55.00;;;;;;5072500;28;20868;-47
2021/10/30 02:56:20;;;;;;;3.58;2.25;;;23.30;55.00;;;;;;5071094;28;20244;-54
2021/10/30 02:58:51;;;;;;;4.25;2.20;;;23.40;55.00;;;;;;5071437;28;20667;-48
2021/10/30 03:01:21;;;;;;;2.70;2.00;;;23.40;54.90;;;;;;5069457;28;20244;-43
2021/10/30 03:03:52;;;;;;;3.88;2.33;;;23.40;54.90;;;;;;5070903;28;20229;-55
2021/10/30 03:06:25;;;;;;;3.03;2.33;;;23.40;54.90;;;;;;5069993;28;20651;-52
2021/10/30 03:08:56;;;;;;;4.65;2.47;;;23.50;55.00;;;;;;5069366;28;20191;-46
2021/10/30 03:11:27;;;;;;;2.40;2.10;;;23.50;54.90;;;;;;5069763;28;20288;-47
2021/10/30 03:13:57;;;;;;;3.25;2.47;;;23.50;54.80;;;;;;5070743;28;20234;-48
2021/10/30 03:16:28;;;;;;;4.93;2.47;;;23.60;54.80;;;;;;5069617;28;20203;-45
2021/10/30 03:18:58;;;;;;;3.20;2.60;;;23.60;54.70;;;;;;5070433;28;20288;-57
2021/10/30 03:21:31;;;;;;;3.88;2.38;;;23.60;54.70;;;;;;5070582;28;20261;-46
2021/10/30 03:24:01;;;;;;;4.05;2.58;;;23.70;54.70;;;;;;5069814;28;20622;-44
2021/10/30 03:26:32;;;;;;;2.70;2.20;;;23.60;54.70;;;;;;5069174;28;20315;-50
2021/10/30 03:29:02;;;;;;;3.40;2.40;;;23.70;54.60;;;;;;5069177;28;20736;-50
2021/10/30 03:31:33;;;;;;;2.33;2.10;;;23.70;54.80;;;;;;5068159;28;20307;-46
2021/10/30 03:34:03;;;;;;;3.17;2.10;;;23.70;54.80;;;;;;5068854;28;20237;-55
2021/10/30 03:36:35;;;;;;;3.80;2.10;;;23.80;54.90;;;;;;5067666;28;20872;-47
2021/10/30 03:39:06;;;;;;;2.92;2.30;;;23.80;55.00;;;;;;5055979;28;20278;-49
2021/10/30 03:41:36;;;;;;;4.43;2.00;;;23.90;55.10;;;;;;5065639;28;20258;-48
2021/10/30 03:44:07;;;;;;;3.97;2.40;;;23.90;55.10;;;;;;5070353;28;20234;-58
2021/10/30 03:46:38;;;;;;;3.53;2.22;;;23.90;55.00;;;;;;5064746;28;20647;-56
2021/10/30 03:49:08;;;;;;;3.38;2.00;;;24.00;55.10;;;;;;5059355;28;20226;-52
2021/10/30 03:51:40;;;;;;;3.15;1.98;;;24.00;54.90;;;;;;5068764;28;20297;-49
2021/10/30 03:54:11;;;;;;;2.58;2.03;;;24.00;54.70;;;;;;5069281;28;20681;-48
2021/10/30 03:56:41;;;;;;;2.25;1.88;;;24.10;54.40;;;;;;5067914;28;20226;-47
2021/10/30 03:59:12;;;;;;;3.13;1.73;;;24.10;54.30;;;;;;5069420;28;20241;-46
2021/10/30 04:01:42;;;;;;;3.60;2.20;;;24.20;54.30;;;;;;5070108;28;20305;-46
2021/10/30 04:04:13;;;;;;;9.30;3.42;;;24.20;54.10;;;;;;5068463;28;20223;-47
2021/10/30 04:06:45;;;;;;;7.65;3.08;;;24.20;53.80;;;;;;5063410;28;20247;-44
2021/10/30 04:09:16;;;;;;;6.03;2.50;;;24.30;53.40;;;;;;5060064;28;20282;-46
2021/10/30 04:11:46;;;;;;;6.68;2.50;;;24.30;53.30;;;;;;5068789;28;20305;-46
2021/10/30 04:14:17;;;;;;;6.68;2.60;;;24.30;52.60;;;;;;5070643;28;20195;-46
2021/10/30 04:16:47;;;;;;;5.43;1.92;;;24.40;52.60;;;;;;5069854;28;20248;-53
2021/10/30 04:19:18;;;;;;;4.90;1.98;;;24.40;52.20;;;;;;5069290;28;20628;-46
2021/10/30 04:21:50;;;;;;;5.03;2.03;;;24.50;52.00;;;;;;5070128;28;20253;-50
2021/10/30 04:24:21;;;;;;;5.57;1.92;;;24.50;52.10;;;;;;5068320;28;20245;-46
2021/10/30 04:26:51;;;;;;;6.25;1.63;;;24.50;51.80;;;;;;5062350;28;20254;-46
2021/10/30 04:29:22;;;;;;;3.95;2.03;;;24.50;51.30;;;;;;5063203;28;20234;-45
2021/10/30 04:31:54;;;;;;;5.20;1.83;;;24.50;51.10;;;;;;5068677;28;20246;-47
2021/10/30 04:37:15;;;;;;;2.83;1.40;;;24.60;50.70;;;;;;5067443;28;20203;-45
2021/10/30 04:39:47;;;;;;;2.75;1.30;;;24.60;50.30;;;;;;5064969;28;20274;-46
2021/10/30 04:42:19;;;;;;;2.42;1.17;;;24.60;50.20;;;;;;5052559;28;20223;-50
2021/10/30 04:44:50;;;;;;;1.73;1.23;;;24.60;50.00;;;;;;5068566;28;20235;-47
2021/10/30 04:47:20;;;;;;;2.05;1.33;;;24.70;49.90;;;;;;5058655;28;20227;-45
2021/10/30 04:49:51;;;;;;;2.90;1.20;;;24.70;49.90;;;;;;5066184;28;20638;-45
2021/10/30 04:52:24;;;;;;;2.40;1.13;;;24.70;49.40;;;;;;5068542;28;20250;-46
2021/10/30 04:54:54;;;;;;;2.00;1.13;;;24.70;49.20;;;;;;5069132;28;20199;-45
2021/10/30 04:57:25;;;;;;;1.75;1.00;;;24.70;49.30;;;;;;5068676;28;20226;-45
2021/10/30 04:59:55;;;;;;;2.78;1.23;;;24.80;49.30;;;;;;5069491;28;20226;-45
2021/10/30 05:02:26;;;;;;;2.67;1.20;;;24.80;49.30;;;;;;5059071;28;20280;-44
2021/10/30 05:04:56;;;;;;;2.65;1.30;;;24.80;49.20;;;;;;5052244;28;20290;-44
2021/10/30 05:07:28;;;;;;;1.02;0.70;;;24.80;49.10;;;;;;5069496;28;20768;-46
2021/10/30 05:09:59;;;;;;;1.75;0.90;;;24.90;49.00;;;;;;5070485;28;20230;-44
2021/10/30 05:12:29;;;;;;;2.58;0.80;;;24.90;48.70;;;;;;5068288;28;20280;-45
2021/10/30 05:15:00;;;;;;;1.48;0.82;;;24.90;48.70;;;;;;5066257;28;20205;-44
2021/10/30 05:17:31;;;;;;;1.23;0.90;;;24.90;48.40;;;;;;5068211;28;20241;-45
2021/10/30 05:20:01;;;;;;;1.58;0.70;;;24.90;47.90;;;;;;5068501;28;20234;-48
2021/10/30 05:22:33;;;;;;;0.85;0.60;;;24.90;47.70;;;;;;5068058;28;20246;-45
2021/10/30 05:25:04;;;;;;;1.20;0.88;;;25.00;47.20;;;;;;5064719;28;20721;-45
2021/10/30 05:27:35;;;;;;;0.80;0.80;;;25.00;47.60;;;;;;5068962;28;20223;-45
2021/10/30 05:30:06;;;;;;;4.15;0.90;;;25.00;47.70;;;;;;5069350;28;20206;-50
2021/10/30 05:32:36;;;;;;;0.80;0.70;;;25.00;47.80;;;;;;5068421;28;20473;-45
2021/10/30 05:35:08;;;;;;;1.08;0.60;;;25.10;47.90;;;;;;5066418;28;20199;-45
2021/10/30 05:37:40;;;;;;;1.85;0.90;;;25.10;48.00;;;;;;5056617;28;20289;-48
2021/10/30 05:40:11;;;;;;;1.45;0.80;;;25.10;48.00;;;;;;5062758;28;20237;-46
2021/10/30 05:42:43;;;;;;;1.50;0.70;;;25.10;48.00;;;;;;5067884;28;20749;-47
2021/10/30 05:45:14;;;;;;;1.52;1.00;;;25.10;47.90;;;;;;5067749;28;20198;-45
2021/10/30 05:47:45;;;;;;;2.78;1.00;;;25.10;48.00;;;;;;5067656;28;20649;-45
2021/10/30 05:50:15;;;;;;;2.25;0.93;;;25.10;48.10;;;;;;5068093;28;21231;-45
2021/10/30 05:52:49;;;;;;;1.42;1.02;;;25.10;48.20;;;;;;5068904;28;20301;-47
2021/10/30 05:55:25;;;;;;;2.20;1.00;;;25.10;48.30;;;;;;5068706;28;20199;-47
2021/10/30 05:57:56;;;;;;;2.65;0.95;;;25.10;48.40;;;;;;5066855;28;20655;-49
2021/10/30 06:00:26;;;;;;;1.95;0.77;;;25.10;48.60;;;;;;5067047;28;20241;-50
2021/10/30 06:02:59;;;;;;;1.48;0.88;;;25.10;48.60;;;;;;5063893;28;20717;-45
2021/10/30 06:05:29;;;;;;;1.27;0.80;;;25.10;48.70;;;;;;5062635;28;20202;-51
2021/10/30 06:08:02;;;;;;;2.25;0.90;;;25.10;48.70;;;;;;5070477;28;20284;-54
2021/10/30 06:10:34;;;;;;;21.40;2.78;;;25.10;48.80;;;;;;5072469;28;20243;-53
2021/10/30 06:13:05;;;;;;;16.42;2.20;;;25.10;46.60;;;;;;5056932;28;20261;-52
2021/10/30 06:15:35;;;;;;;3.53;0.80;;;25.10;44.90;;;;;;5070185;28;20202;-51
2021/10/30 06:18:06;;;;;;;1.45;0.60;;;25.00;44.00;;;;;;5072495;28;20777;-51
2021/10/30 06:20:37;;;;;;;0.95;0.70;;;24.90;43.70;;;;;;5072447;28;20619;-47
2021/10/30 06:23:11;;;;;;;1.58;0.60;;;24.90;43.10;;;;;;5071299;28;20250;-54
2021/10/30 06:25:42;;;;;;;1.38;0.40;;;24.80;42.90;;;;;;5071016;28;20203;-46
2021/10/30 06:28:12;;;;;;;0.55;0.40;;;24.70;42.90;;;;;;5070412;28;20922;-49
2021/10/30 06:30:43;;;;;;;0.52;0.40;;;24.60;42.70;;;;;;5070723;28;20560;-45
2021/10/30 06:33:13;;;;;;;0.40;0.40;;;24.50;42.80;;;;;;5069283;28;20702;-54
2021/10/30 06:35:44;;;;;;;0.32;0.32;;;24.50;43.30;;;;;;5066470;28;20231;-52
2021/10/30 06:38:16;;;;;;;0.45;0.30;;;24.50;43.40;;;;;;5059561;28;20720;-49
2021/10/30 06:40:47;;;;;;;1.17;0.38;;;24.40;43.20;;;;;;5072722;28;20819;-49
2021/10/30 06:43:18;;;;;;;0.38;0.30;;;24.40;43.20;;;;;;5070586;28;20269;-49
2021/10/30 06:45:48;;;;;;;0.57;0.45;;;24.30;43.60;;;;;;5071608;28;20230;-50
2021/10/30 06:48:19;;;;;;;0.30;0.30;;;24.30;43.40;;;;;;5070725;28;20265;-45
2021/10/30 06:50:50;;;;;;;1.55;0.40;;;24.20;43.50;;;;;;5070430;28;20673;-50
2021/10/30 06:53:25;;;;;;;1.85;0.60;;;24.20;43.50;;;;;;5062284;28;20241;-50
2021/10/30 06:55:58;;;;;;;1.45;0.57;;;24.20;44.00;;;;;;5058481;28;20264;-53
2021/10/30 06:58:30;;;;;;;0.65;0.55;;;24.20;44.50;;;;;;5072549;28;20194;-47
2021/10/30 07:01:01;;;;;;;0.80;0.40;;;24.10;44.70;;;;;;5071383;28;20484;-54
2021/10/30 07:03:32;;;;;;;0.95;0.57;;;24.10;44.70;;;;;;5071342;28;20249;-47
2021/10/30 07:06:02;;;;;;;1.30;0.40;;;24.00;44.70;;;;;;5066792;28;20268;-57
2021/10/30 07:08:35;;;;;;;0.30;0.30;;;24.00;44.70;;;;;;5070850;28;20317;-49
2021/10/30 07:11:05;;;;;;;1.08;0.40;;;24.00;44.60;;;;;;5071682;28;20195;-47
2021/10/30 07:13:36;;;;;;;1.33;0.50;;;24.00;44.50;;;;;;5069326;28;20253;-53
2021/10/30 07:16:06;;;;;;;3.40;0.57;;;24.00;44.30;;;;;;5071528;28;20227;-49
2021/10/30 07:18:38;;;;;;;1.20;0.47;;;24.00;44.40;;;;;;5068841;28;20241;-45
2021/10/30 07:21:08;;;;;;;1.58;0.30;;;23.90;44.60;;;;;;5056203;28;20286;-55
2021/10/30 07:23:42;;;;;;;2.03;0.50;;;23.90;44.90;;;;;;5005179;23;20236;-48
2021/10/30 07:26:13;;;;;;;1.85;0.50;;;23.90;45.10;;;;;;4955674;28;20203;-48
2021/10/30 07:28:43;;;;;;;0.93;0.50;;;24.00;45.40;;;;;;4969253;28;20313;-47
2021/10/30 07:31:14;;;;;;;0.75;0.47;;;23.90;45.60;;;;;;4970070;28;20236;-47
2021/10/30 07:33:44;;;;;;;0.40;0.40;;;23.90;45.90;;;;;;4950517;28;20261;-47
2021/10/30 07:36:15;;;;;;;0.77;0.40;;;23.90;46.10;;;;;;4947471;28;20204;-46
2021/10/30 07:38:47;;;;;;;0.90;0.40;;;24.00;46.30;;;;;;4941132;28;20207;-47
2021/10/30 07:41:17;;;;;;;1.35;0.60;;;24.00;46.50;;;;;;4950869;28;20242;-47
2021/10/30 07:43:53;;;;;;;2.20;0.60;;;23.90;46.50;;;;;;4949144;28;20282;-47
2021/10/30 07:46:23;;;;;;;0.77;0.60;;;23.90;46.60;;;;;;4951920;29;20234;-47
2021/10/30 07:48:54;;;;;;;0.63;0.40;;;24.00;46.80;;;;;;4936364;29;20314;-49
2021/10/30 07:51:25;;;;;;;2.88;0.52;;;24.00;46.80;;;;;;4950250;29;20289;-47
2021/10/30 07:53:58;;;;;;;1.63;0.65;;;24.00;46.80;;;;;;4939766;28;20212;-47
2021/10/30 07:56:28;;;;;;;1.75;0.50;;;24.00;47.00;;;;;;4944363;29;20664;-48
2021/10/30 07:58:59;;;;;;;2.63;0.60;;;24.00;47.00;;;;;;4942147;28;20233;-48
2021/10/30 08:01:29;;;;;;;2.50;0.68;;;24.00;47.00;;;;;;4950542;28;20239;-48
2021/10/30 08:04:01;;;;;;;1.02;0.50;;;24.00;47.10;;;;;;4950731;28;20766;-47
2021/10/30 08:06:31;;;;;;;0.63;0.50;;;24.00;47.20;;;;;;4951574;28;20200;-47
2021/10/30 08:09:04;;;;;;;0.73;0.50;;;24.00;47.30;;;;;;4932743;28;20254;-47
2021/10/30 08:11:34;;;;;;;0.63;0.43;;;24.00;47.30;;;;;;4936796;28;20239;-45
2021/10/30 08:14:05;;;;;;;2.00;0.50;;;23.90;47.40;;;;;;4950161;29;20747;-46
2021/10/30 08:16:36;;;;;;;1.27;0.68;;;24.00;47.40;;;;;;4939546;28;20297;-46
2021/10/30 08:19:07;;;;;;;1.90;0.60;;;24.00;47.50;;;;;;4944202;29;20199;-46
2021/10/30 08:21:37;;;;;;;1.02;0.50;;;24.00;47.60;;;;;;4960217;23;20302;-48
2021/10/30 08:24:10;;;;;;;0.68;0.43;;;23.90;47.70;;;;;;4969146;28;20206;-52
2021/10/30 08:26:41;;;;;;;0.30;0.30;;;24.00;47.70;;;;;;4958291;28;20217;-57
2021/10/30 08:29:12;;;;;;;1.13;0.52;;;24.00;47.80;;;;;;4955606;28;20230;-54
2021/10/30 08:31:42;;;;;;;1.60;0.50;;;24.00;47.90;;;;;;4950241;28;20235;-49
2021/10/30 08:34:13;;;;;;;2.15;0.50;;;24.00;47.90;;;;;;4951399;28;20286;-61
2021/10/30 08:36:43;;;;;;;0.50;0.50;;;24.00;47.90;;;;;;4949698;28;20290;-54
2021/10/30 08:39:16;;;;;;;1.95;0.50;;;24.00;48.00;;;;;;4949066;28;20575;-54
2021/10/30 08:41:46;;;;;;;1.10;0.68;;;24.00;48.00;;;;;;4950033;28;20316;-50
2021/10/30 08:44:17;;;;;;;0.63;0.50;;;23.90;48.10;;;;;;4949039;28;20230;-52
2021/10/30 08:46:48;;;;;;;1.25;0.73;;;23.90;48.20;;;;;;4951996;28;20230;-55
2021/10/30 08:49:19;;;;;;;1.20;0.52;;;23.90;48.20;;;;;;4943802;28;20317;-60
2021/10/30 08:51:50;;;;;;;0.77;0.47;;;23.90;48.30;;;;;;4952127;28;20274;-45
2021/10/30 08:54:22;;;;;;;0.85;0.50;;;23.90;48.40;;;;;;4950932;29;20238;-46
2021/10/30 08:56:53;;;;;;;0.47;0.40;;;23.90;48.40;;;;;;4951154;28;20281;-57
2021/10/30 08:59:41;;;;;;;1.10;0.70;;;23.90;48.40;;;;;;4937844;28;20668;-54
2021/10/30 09:02:26;;;;;;;0.73;0.50;;;23.90;48.40;;;;;;4949270;28;20231;-50
2021/10/30 09:05:15;;;;;;;1.55;0.63;;;23.90;48.40;;;;;;4949323;28;20202;-49
2021/10/30 09:07:48;;;;;;;1.23;0.70;;;23.80;48.50;;;;;;4948832;29;20240;-47
2021/10/30 09:10:22;;;;;;;0.50;0.40;;;23.90;48.50;;;;;;4948872;28;20347;-53
2021/10/30 09:12:57;;;;;;;0.40;0.40;;;23.80;48.50;;;;;;4947696;28;20320;-49
2021/10/30 09:15:35;;;;;;;0.40;0.40;;;23.80;48.70;;;;;;4950026;28;20294;-47
2021/10/30 09:18:07;;;;;;;0.73;0.40;;;23.80;48.70;;;;;;4950056;28;20677;-53
2021/10/30 09:20:38;;;;;;;1.10;0.50;;;23.80;48.70;;;;;;4948778;28;20286;-48
2021/10/30 09:23:12;;;;;;;0.70;0.50;;;23.80;48.80;;;;;;4951223;28;20311;-51
2021/10/30 09:25:58;;;;;;;0.73;0.60;;;23.80;48.90;;;;;;4948432;29;20238;-47
2021/10/30 09:28:29;;;;;;;0.93;0.60;;;23.80;48.90;;;;;;4950744;29;20230;-46
2021/10/30 09:31:05;;;;;;;0.80;0.60;;;23.80;48.90;;;;;;4952013;28;20218;-45
2021/10/30 09:33:39;;;;;;;0.85;0.52;;;23.80;48.80;;;;;;4949505;28;20234;-53
2021/10/30 09:36:16;;;;;;;0.93;0.52;;;23.80;48.90;;;;;;4948753;28;20738;-47
2021/10/30 09:38:50;;;;;;;0.47;0.47;;;23.70;48.90;;;;;;4949723;28;20286;-48
2021/10/30 09:41:28;;;;;;;0.60;0.50;;;23.70;48.90;;;;;;4946525;28;20266;-52
2021/10/30 09:44:01;;;;;;;0.90;0.50;;;23.70;48.90;;;;;;4946485;29;20231;-48
2021/10/30 09:46:33;;;;;;;1.05;0.70;;;23.70;49.00;;;;;;4952940;28;20553;-48
2021/10/30 09:49:13;;;;;;;0.40;0.40;;;23.70;49.00;;;;;;4953500;28;20285;-48
2021/10/30 09:51:45;;;;;;;0.52;0.50;;;23.70;49.10;;;;;;4953543;28;21238;-49
2021/10/30 09:54:31;;;;;;;0.80;0.57;;;23.70;49.10;;;;;;4954785;28;20309;-48
2021/10/30 09:57:06;;;;;;;0.43;0.43;;;23.70;49.20;;;;;;4938879;29;20235;-49
2021/10/30 09:59:38;;;;;;;0.85;0.55;;;23.70;49.20;;;;;;4954696;28;20742;-54
2021/10/30 10:02:14;;;;;;;0.40;0.40;;;23.70;49.20;;;;;;4953381;28;20223;-50
2021/10/30 10:04:50;;;;;;;0.95;0.55;;;23.60;49.20;;;;;;4943239;29;20237;-58
2021/10/30 10:07:27;;;;;;;1.73;0.70;;;23.60;49.20;;;;;;4951674;28;20280;-49
2021/10/30 10:09:58;;;;;;;3.00;0.68;;;23.60;49.20;;;;;;4952758;28;20708;-56
2021/10/30 10:12:31;;;;;;;2.75;0.77;;;23.60;49.30;;;;;;4953807;28;20282;-48
2021/10/30 10:15:03;;;;;;;1.48;0.63;;;23.60;49.30;;;;;;4951203;28;20211;-57
2021/10/30 10:17:37;;;;;;;0.55;0.50;;;23.60;49.30;;;;;;4953244;28;20226;-54
2021/10/30 10:20:09;;;;;;;0.90;0.50;;;23.50;49.30;;;;;;4952584;28;20238;-50
2021/10/30 10:22:40;;;;;;;1.92;0.70;;;23.50;49.40;;;;;;4953781;28;20226;-53
2021/10/30 10:25:31;;;;;;;1.27;0.98;;;23.50;49.40;;;;;;4953875;29;20234;-53
2021/10/30 10:28:27;;;;;;;2.92;0.75;;;23.50;49.50;;;;;;4953945;29;20695;-61
2021/10/30 10:31:03;;;;;;;0.98;0.65;;;23.50;49.50;;;;;;4949902;28;20235;-61
2021/10/30 10:33:34;;;;;;;1.95;0.80;;;23.40;49.50;;;;;;4947160;28;20259;-56
2021/10/30 10:36:26;;;;;;;1.40;0.60;;;23.50;49.60;;;;;;4945232;29;20253;-63
2021/10/30 10:39:29;;;;;;;2.17;1.00;;;23.40;49.60;;;;;;4950999;29;20199;-49
2021/10/30 10:42:03;;;;;;;2.83;1.10;;;23.40;49.70;;;;;;4952599;28;20219;-48
2021/10/30 10:45:08;;;;;;;2.75;1.20;;;23.40;49.90;;;;;;4953214;28;20199;-48
2021/10/30 10:48:10;;;;;;;2.92;1.33;;;23.40;50.10;;;;;;4953591;29;20234;-51
2021/10/30 10:50:51;;;;;;;3.05;1.35;;;23.40;50.20;;;;;;4949930;29;20207;-47
2021/10/30 10:53:32;;;;;;;2.80;1.00;;;23.40;50.30;;;;;;4950440;28;20214;-48
2021/10/30 10:56:20;;;;;;;2.80;1.33;;;23.40;50.40;;;;;;4952799;29;20719;-47
2021/10/30 10:59:08;;;;;;;3.30;1.52;;;23.40;50.50;;;;;;4945998;29;20684;-60
2021/10/30 11:02:15;;;;;;;2.20;1.17;;;23.40;50.60;;;;;;4952276;28;20199;-50
2021/10/30 11:05:26;;;;;;;2.53;1.17;;;23.40;50.60;;;;;;4953211;29;20213;-46
2021/10/30 11:08:29;;;;;;;2.40;1.27;;;23.40;50.60;;;;;;4933540;29;20311;-50
2021/10/30 11:11:23;;;;;;;2.40;1.20;;;23.30;50.60;;;;;;4937034;29;20207;-52
2021/10/30 11:14:03;;;;;;;2.42;1.23;;;23.30;50.70;;;;;;4952631;28;20200;-49
2021/10/30 11:16:41;;;;;;;2.38;1.40;;;23.30;50.80;;;;;;4951893;28;20202;-59
2021/10/30 11:19:24;;;;;;;2.42;1.35;;;23.30;50.90;;;;;;4942144;29;20207;-54
2021/10/30 11:22:09;;;;;;;2.63;1.48;;;23.30;51.00;;;;;;4953327;28;20698;-49
2021/10/30 11:24:56;;;;;;;2.30;1.17;;;23.30;51.10;;;;;;4938691;29;20203;-50
2021/10/30 11:27:26;;;;;;;3.05;1.10;;;23.20;51.00;;;;;;4953138;29;20674;-46
2021/10/30 11:29:58;;;;;;;2.08;1.25;;;23.20;51.00;;;;;;4950628;29;20258;-56
2021/10/30 11:32:37;;;;;;;2.50;1.20;;;23.20;51.00;;;;;;4951915;28;20251;-50
2021/10/30 11:35:14;;;;;;;2.05;1.05;;;23.20;51.00;;;;;;4948826;28;20237;-53
2021/10/30 11:37:47;;;;;;;2.35;1.10;;;23.20;51.00;;;;;;4947911;29;20234;-51
2021/10/30 11:40:17;;;;;;;2.35;1.10;;;23.20;51.10;;;;;;4950622;28;20678;-50
2021/10/30 11:42:54;;;;;;;1.95;1.00;;;23.20;51.10;;;;;;4951704;28;20306;-48
2021/10/30 11:45:29;;;;;;;3.88;1.23;;;23.20;51.20;;;;;;4949524;28;20250;-49
2021/10/30 11:48:01;;;;;;;2.20;1.15;;;23.20;51.20;;;;;;4949964;29;20235;-55
2021/10/30 11:50:31;;;;;;;3.95;1.35;;;23.20;51.30;;;;;;4951286;28;20261;-53
2021/10/30 11:53:06;;;;;;;2.45;1.40;;;23.10;51.30;;;;;;4951788;28;20310;-54
2021/10/30 11:55:37;;;;;;;3.58;1.30;;;23.10;51.40;;;;;;4935579;29;20294;-46
2021/10/30 11:58:07;;;;;;;3.85;1.35;;;23.10;51.50;;;;;;4950774;29;20242;-51
2021/10/30 12:00:38;;;;;;;2.35;1.40;;;23.10;51.50;;;;;;4950036;28;20238;-46
2021/10/30 12:03:08;;;;;;;2.35;1.20;;;23.10;51.50;;;;;;4946568;28;20802;-46
2021/10/30 12:05:39;;;;;;;1.83;1.20;;;23.10;51.60;;;;;;4950630;28;20282;-54
2021/10/30 12:08:13;;;;;;;3.03;1.20;;;23.00;51.60;;;;;;4949834;28;20210;-56
2021/10/30 12:10:47;;;;;;;3.97;1.20;;;23.00;51.60;;;;;;4948362;28;20321;-50
2021/10/30 12:13:18;;;;;;;2.33;1.20;;;23.00;51.70;;;;;;4950974;28;20310;-50
2021/10/30 12:15:50;;;;;;;2.53;1.00;;;23.00;51.70;;;;;;4933210;29;20191;-52
2021/10/30 12:18:20;;;;;;;2.50;1.40;;;23.00;51.80;;;;;;4950745;29;20248;-47
2021/10/30 12:20:55;;;;;;;1.30;1.17;;;23.00;51.80;;;;;;4950676;28;20246;-51
2021/10/30 12:23:28;;;;;;;1.10;0.90;;;23.00;51.80;;;;;;4950706;28;20258;-50
2021/10/30 12:26:05;;;;;;;2.30;1.10;;;23.00;51.90;;;;;;4949104;28;20214;-52
2021/10/30 12:28:36;;;;;;;1.83;0.93;;;23.00;51.90;;;;;;4950900;28;20652;-46
2021/10/30 12:31:13;;;;;;;1.83;1.20;;;23.00;51.90;;;;;;4949458;28;20687;-49
2021/10/30 12:33:45;;;;;;;1.88;1.13;;;23.00;51.90;;;;;;4950913;28;20301;-46
2021/10/30 12:36:21;;;;;;;2.30;0.80;;;22.90;51.90;;;;;;4947556;28;20203;-52
2021/10/30 12:39:01;;;;;;;1.58;0.90;;;22.90;51.90;;;;;;4950092;28;20199;-57
2021/10/30 12:41:36;;;;;;;3.20;1.02;;;22.90;51.90;;;;;;4949303;28;20198;-46
2021/10/30 12:44:07;;;;;;;1.30;0.88;;;22.90;51.90;;;;;;4949361;28;20238;-52
2021/10/30 12:46:56;;;;;;;1.33;1.00;;;22.90;52.00;;;;;;4950507;29;20235;-47
2021/10/30 12:49:33;;;;;;;1.25;1.00;;;22.90;52.00;;;;;;4950924;29;20656;-53
2021/10/30 12:52:11;;;;;;;1.48;0.90;;;22.80;51.90;;;;;;4949598;28;20226;-51
2021/10/30 12:54:56;;;;;;;1.70;0.98;;;22.80;52.00;;;;;;4936678;28;20207;-53
2021/10/30 12:57:27;;;;;;;2.17;1.17;;;22.80;52.00;;;;;;4948598;29;20294;-48
2021/10/30 13:00:07;;;;;;;1.85;1.08;;;22.80;52.00;;;;;;4950197;28;20203;-51
2021/10/30 13:02:37;;;;;;;2.15;0.80;;;22.80;52.10;;;;;;4940617;28;20310;-48
2021/10/30 13:05:19;;;;;;;2.05;0.80;;;22.80;52.00;;;;;;4936559;29;20231;-47
2021/10/30 13:07:58;;;;;;;1.20;0.73;;;22.70;52.00;;;;;;4940113;29;20194;-51
2021/10/30 13:10:32;;;;;;;1.35;0.82;;;22.80;52.10;;;;;;4950184;28;20250;-48
2021/10/30 13:13:03;;;;;;;2.17;0.88;;;22.70;52.10;;;;;;4947298;28;20299;-48
2021/10/30 13:15:33;;;;;;;1.33;0.70;;;22.70;52.10;;;;;;4935612;29;20252;-52
2021/10/30 13:18:04;;;;;;;2.03;1.00;;;22.70;52.10;;;;;;4950208;28;20291;-50
2021/10/30 13:20:35;;;;;;;0.85;0.82;;;22.70;52.10;;;;;;4948615;29;20667;-46
2021/10/30 13:23:06;;;;;;;2.33;1.00;;;22.70;52.10;;;;;;4949689;28;20258;-48